createdAt,value
2019-01-30T00:10:42.685Z,5.80
2019-01-30T00:15:34.060Z,5.50
2019-01-30T00:41:48.265Z,5.50
2019-01-30T00:52:55.759Z,7.70
2019-01-30T00:57:43.759Z,6.40
2019-01-30T01:02:35.048Z,4.20
2019-01-30T01:07:26.532Z,4.40
2019-01-30T01:12:17.950Z,6.00
2019-01-30T01:17:09.652Z,3.40
2019-01-30T01:22:02.166Z,3.90
2019-01-30T01:26:55.466Z,7.50
2019-01-30T01:31:46.460Z,3.40
2019-01-30T01:36:37.853Z,4.90
2019-01-30T01:41:31.337Z,3.40
2019-01-30T01:46:22.395Z,4.20
2019-01-30T01:51:13.977Z,5.20
2019-01-30T01:56:05.705Z,4.30
2019-01-30T02:00:57.218Z,6.10
2019-01-30T02:05:49.083Z,5.70
2019-01-30T02:10:40.747Z,4.30
2019-01-30T02:15:32.534Z,2.90
2019-01-30T02:20:24.114Z,3.80
2019-01-30T02:25:15.772Z,5.50
2019-01-30T02:30:09.375Z,5.40
2019-01-30T02:35:02.707Z,4.40
2019-01-30T02:39:54.020Z,4.70
2019-01-30T02:44:46.032Z,4.40
2019-01-30T02:49:37.858Z,4.50
2019-01-30T02:54:29.584Z,6.80
2019-01-30T02:59:21.539Z,6.30
2019-01-30T03:04:13.384Z,4.50
2019-01-30T03:09:05.163Z,4.40
2019-01-30T03:13:59.047Z,4.30
2019-01-30T03:18:50.233Z,3.80
2019-01-30T03:23:43.767Z,4.50
2019-01-30T03:28:34.852Z,4.00
2019-01-30T03:33:26.782Z,5.60
2019-01-30T03:38:18.426Z,4.10
2019-01-30T03:43:10.149Z,5.20
2019-01-30T03:48:01.892Z,3.60
2019-01-30T03:52:53.715Z,4.20
2019-01-30T03:57:45.401Z,3.90
2019-01-30T04:02:37.157Z,5.40
2019-01-30T04:07:29.090Z,5.40
2019-01-30T04:12:20.588Z,6.70
2019-01-30T04:17:12.635Z,10.10
2019-01-30T04:22:04.555Z,6.20
2019-01-30T04:26:56.270Z,5.80
2019-01-30T04:31:48.109Z,7.30
2019-01-30T04:36:39.595Z,6.30
2019-01-30T04:41:31.246Z,7.70
2019-01-30T04:46:23.287Z,5.10
2019-01-30T04:51:15.278Z,6.10
2019-01-30T04:56:07.096Z,7.20
2019-01-30T05:00:59.017Z,6.50
2019-01-30T05:05:50.782Z,5.30
2019-01-30T05:10:44.270Z,6.90
2019-01-30T05:15:35.585Z,6.60
2019-01-30T05:20:27.503Z,7.90
2019-01-30T05:25:21.147Z,10.80
2019-01-30T05:30:12.189Z,7.80
2019-01-30T05:35:04.125Z,8.10
2019-01-30T05:39:55.679Z,5.60
2019-01-30T05:44:47.372Z,11.70
2019-01-30T05:49:41.136Z,7.20
2019-01-30T05:54:32.382Z,15.50
2019-01-30T05:59:24.281Z,10.00
2019-01-30T06:04:16.181Z,6.10
2019-01-30T06:09:07.589Z,9.30
2019-01-30T06:13:59.274Z,8.10
2019-01-30T06:18:53.227Z,9.90
2019-01-30T06:23:46.632Z,6.90
2019-01-30T06:28:39.830Z,6.80
2019-01-30T06:33:33.612Z,8.50
2019-01-30T06:38:24.919Z,5.30
2019-01-30T06:43:18.457Z,7.50
2019-01-30T06:48:12.538Z,6.40
2019-01-30T06:53:03.467Z,6.60
2019-01-30T06:57:55.124Z,7.50
2019-01-30T07:02:46.948Z,8.00
2019-01-30T07:07:38.776Z,9.20
2019-01-30T07:12:30.566Z,8.70
2019-01-30T07:17:22.245Z,7.20
2019-01-30T07:22:13.739Z,13.80
2019-01-30T07:27:05.507Z,5.70
2019-01-30T07:31:57.112Z,7.20
2019-01-30T07:36:49.116Z,9.40
2019-01-30T07:41:40.871Z,5.40
2019-01-30T07:46:34.801Z,9.10
2019-01-30T07:51:25.877Z,6.80
2019-01-30T07:56:17.494Z,5.40
2019-01-30T08:01:09.195Z,5.80
2019-01-30T08:06:01.009Z,5.30
2019-01-30T08:10:52.755Z,6.30
2019-01-30T08:15:44.508Z,6.20
2019-01-30T08:20:36.439Z,9.60
2019-01-30T08:25:30.248Z,8.10
2019-01-30T08:30:23.479Z,9.70
2019-01-30T08:35:17.812Z,5.50
2019-01-30T08:40:08.859Z,7.10
2019-01-30T08:45:00.926Z,5.50
2019-01-30T08:49:52.816Z,4.70
2019-01-30T08:54:46.702Z,10.20
2019-01-30T08:59:39.843Z,6.10
2019-01-30T09:04:31.250Z,5.70
2019-01-30T09:09:22.935Z,8.70
2019-01-30T09:14:15.614Z,5.80
2019-01-30T09:19:07.119Z,6.10
2019-01-30T09:24:00.694Z,19.30
2019-01-30T09:28:51.963Z,6.60
2019-01-30T09:33:43.921Z,10.40
2019-01-30T09:38:37.412Z,10.30
2019-01-30T09:43:28.835Z,13.70
2019-01-30T09:48:20.561Z,9.80
2019-01-30T09:53:14.337Z,8.70
2019-01-30T09:58:07.831Z,9.50
2019-01-30T10:02:59.957Z,13.20
2019-01-30T10:07:51.632Z,10.60
2019-01-30T10:12:45.574Z,18.60
2019-01-30T10:17:37.529Z,12.30
2019-01-30T10:22:29.331Z,12.80
2019-01-30T10:27:21.966Z,12.50
2019-01-30T10:32:13.606Z,12.00
2019-01-30T10:37:21.795Z,16.10
2019-01-30T10:42:08.810Z,12.80
2019-01-30T10:47:00.581Z,11.90
2019-01-30T10:51:52.257Z,17.90
2019-01-30T10:56:44.060Z,13.60
2019-01-30T11:01:36.226Z,18.00
2019-01-30T11:06:28.025Z,14.00
2019-01-30T11:11:19.950Z,14.50
2019-01-30T11:16:11.628Z,17.20
2019-01-30T11:21:06.182Z,13.70
2019-01-30T11:25:57.485Z,12.20
2019-01-30T11:30:49.410Z,10.70
2019-01-30T11:35:41.166Z,13.60
2019-01-30T11:40:34.586Z,15.80
2019-01-30T11:45:26.245Z,13.90
2019-01-30T11:50:19.863Z,15.30
2019-01-30T11:55:11.205Z,10.00
2019-01-30T12:00:02.790Z,14.90
2019-01-30T12:04:54.561Z,13.50
2019-01-30T12:09:46.341Z,11.50
2019-01-30T12:14:37.911Z,10.10
2019-01-30T12:19:29.470Z,12.80
2019-01-30T12:24:21.064Z,12.70
2019-01-30T12:29:13.140Z,12.70
2019-01-30T12:34:05.745Z,13.60
2019-01-30T12:38:57.631Z,13.40
2019-01-30T12:43:51.328Z,16.50
2019-01-30T12:48:42.744Z,15.70
2019-01-30T12:53:34.778Z,15.60
2019-01-30T12:58:26.720Z,15.60
2019-01-30T13:03:18.630Z,14.90
2019-01-30T13:08:10.523Z,17.70
2019-01-30T13:13:02.204Z,17.00
2019-01-30T13:17:53.981Z,21.00
2019-01-30T13:22:45.901Z,19.10
2019-01-30T13:27:37.288Z,13.60
2019-01-30T13:32:28.762Z,16.60
2019-01-30T13:37:20.461Z,19.30
2019-01-30T13:42:12.108Z,21.80
2019-01-30T13:47:03.632Z,21.80
2019-01-30T13:51:55.529Z,20.80
2019-01-30T13:56:47.419Z,20.80
2019-01-30T14:01:39.262Z,23.90
2019-01-30T14:06:31.000Z,21.50
2019-01-30T14:11:22.717Z,21.00
2019-01-30T14:16:16.421Z,21.30
2019-01-30T14:21:07.766Z,23.00
2019-01-30T14:25:59.631Z,20.90
2019-01-30T14:30:53.655Z,23.70
2019-01-30T14:35:45.163Z,22.70
2019-01-30T14:40:37.219Z,21.40
2019-01-30T14:45:29.068Z,24.00
2019-01-30T14:50:20.699Z,27.20
2019-01-30T14:55:12.642Z,27.00
2019-01-30T15:00:04.302Z,26.70
2019-01-30T15:04:55.855Z,28.30
2019-01-30T15:09:49.853Z,31.50
2019-01-30T15:14:41.224Z,24.60
2019-01-30T15:19:32.990Z,28.20
2019-01-30T15:24:26.778Z,27.30
2019-01-30T15:29:16.884Z,28.40
2019-01-30T15:34:07.172Z,29.80
2019-01-30T15:38:58.153Z,33.80
2019-01-30T15:43:49.738Z,33.90
2019-01-30T15:48:39.770Z,28.50
2019-01-30T15:53:31.696Z,33.00
2019-01-30T15:58:23.961Z,30.00
2019-01-30T16:03:13.499Z,31.20
2019-01-30T16:08:05.515Z,35.40
2019-01-30T16:12:55.810Z,32.80
2019-01-30T16:17:45.935Z,28.60
2019-01-30T16:22:36.348Z,35.30
2019-01-30T16:27:26.462Z,30.50
2019-01-30T16:32:16.232Z,31.30
2019-01-30T16:37:07.175Z,22.60
2019-01-30T16:41:57.443Z,22.50
2019-01-30T16:46:50.446Z,23.40
2019-01-30T16:51:39.950Z,28.40
2019-01-30T16:56:31.760Z,27.70
2019-01-30T17:01:20.847Z,29.90
2019-01-30T17:06:13.171Z,28.00
2019-01-30T17:11:04.216Z,20.20
2019-01-30T17:15:58.050Z,26.40
2019-01-30T17:20:48.475Z,22.40
2019-01-30T17:25:39.537Z,28.80
2019-01-30T17:30:31.444Z,23.20
2019-01-30T17:35:22.778Z,24.80
2019-01-30T17:40:14.383Z,23.40
2019-01-30T17:45:06.062Z,20.40
2019-01-30T17:49:58.855Z,22.10
2019-01-30T17:54:50.191Z,24.90
2019-01-30T17:59:43.992Z,29.30
2019-01-30T18:04:35.527Z,26.50
2019-01-30T18:09:27.346Z,26.20
2019-01-30T18:14:19.079Z,27.70
2019-01-30T18:19:10.457Z,26.60
2019-01-30T18:24:02.226Z,20.80
2019-01-30T18:28:53.818Z,22.30
2019-01-30T18:33:48.472Z,29.00
2019-01-30T18:38:39.715Z,33.10
2019-01-30T18:43:31.488Z,27.70
2019-01-30T18:48:23.962Z,28.60
2019-01-30T18:53:19.366Z,33.40
2019-01-30T18:58:10.302Z,29.50
2019-01-30T19:03:01.953Z,31.90
2019-01-30T19:07:55.533Z,37.50
2019-01-30T19:12:46.538Z,28.90
2019-01-30T19:17:38.066Z,29.30
2019-01-30T19:22:29.510Z,29.90
2019-01-30T19:27:24.070Z,33.40
2019-01-30T19:32:17.279Z,34.80
2019-01-30T19:37:10.254Z,36.40
2019-01-30T19:42:01.461Z,27.80
2019-01-30T19:46:52.892Z,29.50
2019-01-30T19:51:46.538Z,31.80
2019-01-30T19:56:38.058Z,30.20
2019-01-30T20:01:35.855Z,37.20
2019-01-30T20:06:26.514Z,31.70
2019-01-30T20:11:18.260Z,28.30
2019-01-30T20:16:09.765Z,27.10
2019-01-30T20:21:01.358Z,25.90
2019-01-30T20:25:53.058Z,29.20
2019-01-30T20:30:44.863Z,27.30
2019-01-30T20:35:36.196Z,30.20
2019-01-30T20:40:27.992Z,28.00
2019-01-30T20:45:19.198Z,19.40
2019-01-30T20:50:11.097Z,24.70
2019-01-30T20:55:04.450Z,25.90
2019-01-30T20:59:55.226Z,24.60
2019-01-30T21:04:45.871Z,24.30
2019-01-30T21:09:37.510Z,24.70
2019-01-30T21:14:28.784Z,25.70
2019-01-30T21:19:19.961Z,26.60
2019-01-30T21:24:10.896Z,19.30
2019-01-30T21:29:01.334Z,26.00
2019-01-30T21:34:01.949Z,26.30
2019-01-30T21:38:59.941Z,29.80
2019-01-30T21:43:49.995Z,21.20
2019-01-30T21:48:38.759Z,25.00
2019-01-30T21:53:28.172Z,24.30
2019-01-30T21:58:28.237Z,31.00
2019-01-30T22:03:15.155Z,23.90
2019-01-30T22:08:04.727Z,23.00
2019-01-30T22:12:53.875Z,18.90
2019-01-30T22:17:45.408Z,21.50
2019-01-30T22:22:34.422Z,30.50
2019-01-30T22:27:25.859Z,24.10
2019-01-30T22:32:14.918Z,21.60
2019-01-30T22:37:06.753Z,25.00
2019-01-30T22:41:55.941Z,21.80
2019-01-30T22:46:53.699Z,24.50
2019-01-30T22:51:43.813Z,20.40
2019-01-30T22:56:31.909Z,25.90
2019-01-30T23:01:30.228Z,23.50
2019-01-30T23:06:18.888Z,20.80
2019-01-30T23:18:20.207Z,40.30
2019-01-30T23:23:12.936Z,28.20
2019-01-30T23:28:05.944Z,27.50
2019-01-30T23:32:59.080Z,27.70
2019-01-30T23:37:52.865Z,24.60
2019-01-30T23:42:43.843Z,18.00
2019-01-30T23:47:32.637Z,20.10
2019-01-30T23:52:23.810Z,20.40
2019-01-30T23:57:16.977Z,22.90
